createdAt,value
2023-04-06T00:01:03.036Z,-85
2023-04-06T00:03:29.941Z,-85
2023-04-06T00:05:56.984Z,-85
2023-04-06T00:08:24.768Z,-85
2023-04-06T00:10:51.791Z,-88
2023-04-06T00:13:18.530Z,-85
2023-04-06T00:15:45.393Z,-85
2023-04-06T00:18:12.346Z,-84
2023-04-06T00:20:39.092Z,-84
2023-04-06T00:23:05.962Z,-85
2023-04-06T00:25:32.844Z,-85
2023-04-06T00:27:59.539Z,-85
2023-04-06T00:30:26.321Z,-84
2023-04-06T00:32:53.038Z,-85
2023-04-06T00:35:19.948Z,-85
2023-04-06T00:37:48.598Z,-84
2023-04-06T00:40:15.829Z,-86
2023-04-06T00:42:42.906Z,-85
2023-04-06T00:45:10.421Z,-85
2023-04-06T00:47:37.625Z,-85
2023-04-06T00:50:04.818Z,-86
2023-04-06T00:52:31.590Z,-85
2023-04-06T00:55:02.960Z,-86
2023-04-06T00:57:32.532Z,-85
2023-04-06T01:00:02.856Z,-85
2023-04-06T01:02:29.833Z,-86
2023-04-06T01:04:57.077Z,-86
2023-04-06T01:07:24.091Z,-86
2023-04-06T01:09:51.386Z,-86
2023-04-06T01:12:18.685Z,-87
2023-04-06T01:14:45.931Z,-87
2023-04-06T01:17:15.704Z,-87
2023-04-06T01:19:42.810Z,-86
2023-04-06T01:22:09.533Z,-86
2023-04-06T01:24:36.217Z,-87
2023-04-06T01:27:03.158Z,-86
2023-04-06T01:29:29.811Z,-87
2023-04-06T01:31:56.774Z,-87
2023-04-06T01:34:23.466Z,-88
2023-04-06T01:36:50.387Z,-87
2023-04-06T01:39:17.309Z,-88
2023-04-06T01:41:43.948Z,-88
2023-04-06T01:44:10.555Z,-88
2023-04-06T01:46:37.252Z,-86
2023-04-06T01:49:03.915Z,-86
2023-04-06T01:51:31.273Z,-87
2023-04-06T01:53:57.998Z,-85
2023-04-06T01:56:25.689Z,-88
2023-04-06T01:58:52.519Z,-85
2023-04-06T02:01:19.273Z,-88
2023-04-06T02:03:46.087Z,-87
2023-04-06T02:06:12.681Z,-87
2023-04-06T02:08:39.452Z,-88
2023-04-06T02:11:06.182Z,-87
2023-04-06T02:13:32.921Z,-86
2023-04-06T02:15:59.910Z,-86
2023-04-06T02:18:26.641Z,-87
2023-04-06T02:20:53.240Z,-86
2023-04-06T02:23:20.060Z,-87
2023-04-06T02:25:46.744Z,-87
2023-04-06T02:28:13.348Z,-87
2023-04-06T02:30:41.472Z,-87
2023-04-06T02:33:08.154Z,-87
2023-04-06T02:35:35.852Z,-87
2023-04-06T02:38:02.585Z,-87
2023-04-06T02:40:29.218Z,-87
2023-04-06T02:42:55.849Z,-87
2023-04-06T02:45:22.541Z,-88
2023-04-06T02:47:49.195Z,-85
2023-04-06T02:50:16.837Z,-88
2023-04-06T02:52:43.686Z,-87
2023-04-06T02:55:10.346Z,-88
2023-04-06T02:57:36.982Z,-88
2023-04-06T03:00:04.048Z,-87
2023-04-06T03:02:30.946Z,-87
2023-04-06T03:04:57.762Z,-87
2023-04-06T03:07:24.405Z,-87
2023-04-06T03:09:51.137Z,-87
2023-04-06T03:12:17.978Z,-87
2023-04-06T03:14:44.678Z,-87
2023-04-06T03:17:11.851Z,-87
2023-04-06T03:19:38.471Z,-87
2023-04-06T03:22:05.094Z,-88
2023-04-06T03:24:31.861Z,-88
2023-04-06T03:26:58.511Z,-88
2023-04-06T03:29:25.128Z,-88
2023-04-06T03:31:51.771Z,-87
2023-04-06T03:34:18.719Z,-87
2023-04-06T03:36:45.705Z,-88
2023-04-06T03:39:13.646Z,-87
2023-04-06T03:41:40.257Z,-86
2023-04-06T03:44:07.077Z,-87
2023-04-06T03:46:33.743Z,-86
2023-04-06T03:49:00.549Z,-86
2023-04-06T03:51:28.317Z,-86
2023-04-06T03:53:54.986Z,-86
2023-04-06T03:56:21.791Z,-87
2023-04-06T03:58:51.928Z,-86
2023-04-06T04:01:21.553Z,-86
2023-04-06T04:03:50.278Z,-86
2023-04-06T04:06:18.745Z,-86
2023-04-06T04:08:45.854Z,-86
2023-04-06T04:11:12.505Z,-87
2023-04-06T04:13:39.592Z,-86
2023-04-06T04:16:06.512Z,-87
2023-04-06T04:18:33.205Z,-87
2023-04-06T04:20:59.842Z,-86
2023-04-06T04:23:26.939Z,-86
2023-04-06T04:25:53.898Z,-84
2023-04-06T04:28:22.848Z,-88
2023-04-06T04:30:49.639Z,-87
2023-04-06T04:33:16.623Z,-86
2023-04-06T04:35:43.256Z,-86
2023-04-06T04:38:10.052Z,-87
2023-04-06T04:40:36.960Z,-85
2023-04-06T04:43:03.643Z,-85
2023-04-06T04:45:30.692Z,-85
2023-04-06T04:47:57.449Z,-85
2023-04-06T04:50:24.205Z,-88
2023-04-06T04:52:51.047Z,-87
2023-04-06T04:55:18.657Z,-88
2023-04-06T04:57:45.561Z,-88
2023-04-06T05:00:12.945Z,-86
2023-04-06T05:02:40.642Z,-87
2023-04-06T05:05:08.698Z,-87
2023-04-06T05:07:38.032Z,-89
2023-04-06T05:10:05.323Z,-87
2023-04-06T05:12:32.112Z,-89
2023-04-06T05:14:58.789Z,-87
2023-04-06T05:17:25.895Z,-87
2023-04-06T05:19:52.692Z,-87
2023-04-06T05:22:19.362Z,-87
2023-04-06T05:24:46.384Z,-87
2023-04-06T05:27:13.104Z,-87
2023-04-06T05:29:39.997Z,-87
2023-04-06T05:32:07.482Z,-86
2023-04-06T05:34:34.145Z,-87
2023-04-06T05:37:01.016Z,-87
2023-04-06T05:39:27.801Z,-88
2023-04-06T05:41:54.516Z,-87
2023-04-06T05:44:21.334Z,-87
2023-04-06T05:46:51.071Z,-87
2023-04-06T05:49:17.788Z,-86
2023-04-06T05:51:47.069Z,-87
2023-04-06T05:54:13.754Z,-87
2023-04-06T05:56:40.494Z,-86
2023-04-06T05:59:07.487Z,-87
2023-04-06T06:01:35.499Z,-86
2023-04-06T06:04:03.693Z,-86
2023-04-06T06:06:33.375Z,-86
2023-04-06T06:09:04.892Z,-85
2023-04-06T06:11:31.577Z,-86
2023-04-06T06:13:58.234Z,-87
2023-04-06T06:16:24.997Z,-86
2023-04-06T06:18:51.668Z,-86
2023-04-06T06:21:18.796Z,-86
2023-04-06T06:23:45.586Z,-85
2023-04-06T06:26:12.434Z,-86
2023-04-06T06:28:39.100Z,-86
2023-04-06T06:31:05.940Z,-86
2023-04-06T06:33:32.566Z,-86
2023-04-06T06:35:59.719Z,-86
2023-04-06T06:38:26.556Z,-86
2023-04-06T06:40:53.587Z,-87
2023-04-06T06:43:20.596Z,-87
2023-04-06T06:45:47.398Z,-88
2023-04-06T06:48:14.416Z,-86
2023-04-06T06:50:41.178Z,-87
2023-04-06T06:53:10.574Z,-89
2023-04-06T06:55:37.396Z,-85
2023-04-06T06:58:04.077Z,-86
2023-04-06T07:00:30.846Z,-87
2023-04-06T07:02:57.540Z,-85
2023-04-06T07:05:28.697Z,-84
2023-04-06T07:07:56.871Z,-85
2023-04-06T07:10:25.968Z,-85
2023-04-06T07:12:53.147Z,-89
2023-04-06T07:15:19.835Z,-86
2023-04-06T07:17:46.740Z,-85
2023-04-06T07:20:14.225Z,-87
2023-04-06T07:22:41.831Z,-84
2023-04-06T07:25:09.028Z,-83
2023-04-06T07:27:36.022Z,-87
2023-04-06T07:30:03.103Z,-84
2023-04-06T07:32:29.810Z,-84
2023-04-06T07:34:57.377Z,-84
2023-04-06T07:37:24.518Z,-83
2023-04-06T07:39:51.348Z,-83
2023-04-06T07:42:18.227Z,-84
2023-04-06T07:44:49.503Z,-86
2023-04-06T07:47:16.213Z,-83
2023-04-06T07:49:42.852Z,-84
2023-04-06T07:52:09.523Z,-84
2023-04-06T07:54:36.187Z,-84
2023-04-06T07:57:02.973Z,-84
2023-04-06T07:59:29.680Z,-84
2023-04-06T08:01:56.353Z,-84
2023-04-06T08:04:23.206Z,-85
2023-04-06T08:06:49.961Z,-84
2023-04-06T08:09:16.909Z,-84
2023-04-06T08:11:43.670Z,-85
2023-04-06T08:14:12.967Z,-84
2023-04-06T08:16:39.635Z,-85
2023-04-06T08:19:08.549Z,-85
2023-04-06T08:21:42.178Z,-84
2023-04-06T08:24:09.107Z,-83
2023-04-06T08:26:36.200Z,-85
2023-04-06T08:29:03.200Z,-88
2023-04-06T08:31:29.962Z,-88
2023-04-06T08:33:57.012Z,-87
2023-04-06T08:36:24.152Z,-87
2023-04-06T08:38:51.049Z,-87
2023-04-06T08:41:18.841Z,-87
2023-04-06T08:43:49.808Z,-87
2023-04-06T08:46:17.225Z,-86
2023-04-06T08:48:44.949Z,-86
2023-04-06T08:51:12.286Z,-86
2023-04-06T08:53:42.124Z,-85
2023-04-06T08:56:11.487Z,-86
2023-04-06T08:58:41.491Z,-85
2023-04-06T09:01:10.268Z,-84
2023-04-06T09:03:42.013Z,-86
2023-04-06T09:06:09.837Z,-85
2023-04-06T09:08:39.177Z,-84
2023-04-06T09:11:07.354Z,-81
2023-04-06T09:13:48.963Z,-82
2023-04-06T09:16:16.506Z,-85
2023-04-06T09:18:44.213Z,-86
2023-04-06T09:21:11.398Z,-84
2023-04-06T09:23:39.439Z,-85
2023-04-06T09:26:11.802Z,-85
2023-04-06T09:28:50.960Z,-85
2023-04-06T09:31:23.097Z,-84
2023-04-06T09:33:50.190Z,-84
2023-04-06T09:36:17.029Z,-85
2023-04-06T09:38:58.534Z,-86
2023-04-06T09:41:27.257Z,-83
2023-04-06T09:44:10.262Z,-82
2023-04-06T09:46:57.994Z,-84
2023-04-06T09:49:32.410Z,-84
2023-04-06T09:52:04.764Z,-86
2023-04-06T09:54:33.258Z,-86
2023-04-06T09:57:09.224Z,-84
2023-04-06T09:59:48.449Z,-83
2023-04-06T10:02:47.816Z,-83
2023-04-06T10:05:23.964Z,-82
2023-04-06T10:08:00.185Z,-84
2023-04-06T10:10:29.670Z,-84
2023-04-06T10:12:57.215Z,-84
2023-04-06T10:15:25.389Z,-83
2023-04-06T10:17:53.053Z,-85
2023-04-06T10:20:37.950Z,-83
2023-04-06T10:23:24.257Z,-84
2023-04-06T10:25:56.396Z,-84
2023-04-06T10:28:24.240Z,-85
2023-04-06T10:30:57.724Z,-86
2023-04-06T10:33:24.953Z,-82
2023-04-06T10:35:51.666Z,-82
2023-04-06T10:38:22.920Z,-84
2023-04-06T10:40:50.108Z,-82
2023-04-06T10:43:22.095Z,-84
2023-04-06T10:46:00.974Z,-83
2023-04-06T10:48:44.970Z,-81
2023-04-06T10:51:16.387Z,-82
2023-04-06T10:53:45.005Z,-84
2023-04-06T10:56:14.007Z,-83
2023-04-06T10:58:48.975Z,-84
2023-04-06T11:01:19.945Z,-84
2023-04-06T11:03:55.156Z,-84
2023-04-06T11:06:26.540Z,-84
2023-04-06T11:08:53.957Z,-83
2023-04-06T11:11:22.697Z,-81
2023-04-06T11:13:54.207Z,-83
2023-04-06T11:16:29.343Z,-83
2023-04-06T11:19:07.405Z,-83
2023-04-06T11:21:38.017Z,-83
2023-04-06T11:24:15.379Z,-83
2023-04-06T11:26:50.223Z,-84
2023-04-06T11:29:22.089Z,-84
2023-04-06T11:31:54.634Z,-84
2023-04-06T11:34:23.636Z,-85
2023-04-06T11:36:56.020Z,-83
2023-04-06T11:39:26.588Z,-84
2023-04-06T11:41:58.338Z,-79
2023-04-06T11:44:37.859Z,-84
2023-04-06T11:47:06.563Z,-81
2023-04-06T11:49:35.330Z,-83
2023-04-06T11:52:02.141Z,-83
2023-04-06T11:54:36.937Z,-83
2023-04-06T11:57:05.168Z,-85
2023-04-06T11:59:34.475Z,-85
2023-04-06T12:02:02.786Z,-84
2023-04-06T12:04:30.387Z,-83
2023-04-06T12:06:57.492Z,-82
2023-04-06T12:09:24.406Z,-83
2023-04-06T12:11:51.339Z,-84
2023-04-06T12:14:18.028Z,-85
2023-04-06T12:16:44.975Z,-84
2023-04-06T12:19:11.989Z,-82
2023-04-06T12:21:38.689Z,-85
2023-04-06T12:24:06.531Z,-84
2023-04-06T12:26:33.911Z,-85
2023-04-06T12:29:10.165Z,-83
2023-04-06T12:31:39.745Z,-86
2023-04-06T12:34:07.014Z,-85
2023-04-06T12:36:34.343Z,-84
2023-04-06T12:39:02.138Z,-81
2023-04-06T12:41:31.599Z,-84
2023-04-06T12:44:00.509Z,-84
2023-04-06T12:46:27.341Z,-85
2023-04-06T12:48:57.686Z,-83
2023-04-06T12:51:24.622Z,-82
2023-04-06T12:53:51.626Z,-82
2023-04-06T12:56:19.508Z,-87
2023-04-06T12:58:46.898Z,-83
2023-04-06T13:01:14.480Z,-83
2023-04-06T13:03:42.436Z,-82
2023-04-06T13:06:11.621Z,-83
2023-04-06T13:08:39.507Z,-85
2023-04-06T13:11:09.431Z,-86
2023-04-06T13:13:36.959Z,-84
2023-04-06T13:16:08.943Z,-84
2023-04-06T13:18:37.912Z,-84
2023-04-06T13:21:04.909Z,-84
2023-04-06T13:23:31.975Z,-87
2023-04-06T13:26:04.368Z,-82
2023-04-06T13:28:32.041Z,-84
2023-04-06T13:31:03.372Z,-85
2023-04-06T13:33:31.915Z,-86
2023-04-06T13:35:59.460Z,-83
2023-04-06T13:38:26.256Z,-84
2023-04-06T13:40:53.096Z,-86
2023-04-06T13:43:21.682Z,-82
2023-04-06T13:45:53.442Z,-81
2023-04-06T13:48:20.394Z,-83
2023-04-06T13:50:47.464Z,-84
2023-04-06T13:53:14.531Z,-84
2023-04-06T13:55:41.410Z,-85
2023-04-06T13:58:10.751Z,-83
2023-04-06T14:00:38.028Z,-84
2023-04-06T14:03:09.772Z,-83
2023-04-06T14:05:39.232Z,-81
2023-04-06T14:08:06.165Z,-80
2023-04-06T14:10:32.761Z,-83
2023-04-06T14:12:59.396Z,-83
2023-04-06T14:15:26.789Z,-84
2023-04-06T14:17:53.472Z,-84
2023-04-06T14:20:20.237Z,-86
2023-04-06T14:22:51.489Z,-85
2023-04-06T14:25:21.196Z,-85
2023-04-06T14:27:47.832Z,-85
2023-04-06T14:30:15.079Z,-84
2023-04-06T14:32:42.417Z,-85
2023-04-06T14:35:09.439Z,-83
2023-04-06T14:37:36.209Z,-86
2023-04-06T14:40:06.776Z,-85
2023-04-06T14:42:33.463Z,-82
2023-04-06T14:45:00.092Z,-84
2023-04-06T14:47:26.798Z,-88
2023-04-06T14:49:54.654Z,-86
2023-04-06T14:52:21.565Z,-87
2023-04-06T14:54:48.189Z,-84
2023-04-06T14:57:17.590Z,-86
2023-04-06T14:59:44.256Z,-83
2023-04-06T15:02:10.999Z,-84
2023-04-06T15:04:37.909Z,-86
2023-04-06T15:07:04.772Z,-83
2023-04-06T15:09:32.389Z,-85
2023-04-06T15:11:59.027Z,-87
2023-04-06T15:14:26.131Z,-88
2023-04-06T15:16:52.897Z,-83
2023-04-06T15:19:19.787Z,-86
2023-04-06T15:21:46.587Z,-82
2023-04-06T15:24:13.555Z,-86
2023-04-06T15:26:40.602Z,-85
2023-04-06T15:29:07.873Z,-82
2023-04-06T15:31:38.223Z,-80
2023-04-06T15:34:09.289Z,-81
2023-04-06T15:36:37.193Z,-85
2023-04-06T15:39:05.019Z,-81
2023-04-06T15:41:32.317Z,-84
2023-04-06T15:43:59.122Z,-84
2023-04-06T15:46:28.501Z,-84
2023-04-06T15:48:56.592Z,-86
2023-04-06T15:51:24.447Z,-84
2023-04-06T15:53:51.392Z,-85
2023-04-06T15:56:18.126Z,-82
2023-04-06T15:58:45.149Z,-82
2023-04-06T16:01:17.515Z,-86
2023-04-06T16:03:45.754Z,-83
2023-04-06T16:06:15.695Z,-84
2023-04-06T16:08:42.400Z,-83
2023-04-06T16:11:10.413Z,-83
2023-04-06T16:13:37.455Z,-85
2023-04-06T16:16:05.763Z,-83
2023-04-06T16:18:34.865Z,-84
2023-04-06T16:21:02.574Z,-83
2023-04-06T16:23:29.183Z,-84
2023-04-06T16:25:57.878Z,-82
2023-04-06T16:28:25.866Z,-82
2023-04-06T16:30:53.233Z,-82
2023-04-06T16:33:19.944Z,-81
2023-04-06T16:35:47.567Z,-83
2023-04-06T16:38:14.991Z,-83
2023-04-06T16:40:41.753Z,-81
2023-04-06T16:43:10.284Z,-83
2023-04-06T16:45:38.429Z,-81
2023-04-06T16:48:06.131Z,-82
2023-04-06T16:50:39.219Z,-82
2023-04-06T16:53:06.152Z,-83
2023-04-06T16:55:33.047Z,-82
2023-04-06T16:57:59.749Z,-82
2023-04-06T17:00:26.457Z,-80
2023-04-06T17:02:53.531Z,-81
2023-04-06T17:05:24.867Z,-85
2023-04-06T17:07:51.703Z,-83
2023-04-06T17:10:23.921Z,-83
2023-04-06T17:12:59.967Z,-83
2023-04-06T17:15:28.607Z,-81
2023-04-06T17:17:55.259Z,-82
2023-04-06T17:20:22.097Z,-83
2023-04-06T17:22:51.651Z,-83
2023-04-06T17:25:18.524Z,-83
2023-04-06T17:27:45.209Z,-81
2023-04-06T17:30:12.815Z,-83
2023-04-06T17:32:39.669Z,-82
2023-04-06T17:35:06.714Z,-85
2023-04-06T17:37:34.870Z,-84
2023-04-06T17:40:01.710Z,-83
2023-04-06T17:42:28.339Z,-81
2023-04-06T17:44:54.955Z,-80
2023-04-06T17:47:21.605Z,-81
2023-04-06T17:49:49.220Z,-83
2023-04-06T17:52:16.025Z,-83
2023-04-06T17:54:43.187Z,-83
2023-04-06T17:57:09.808Z,-82
2023-04-06T17:59:36.515Z,-82
2023-04-06T18:02:09.382Z,-84
2023-04-06T18:04:36.728Z,-81
2023-04-06T18:07:03.642Z,-83
2023-04-06T18:09:33.286Z,-83
2023-04-06T18:11:59.889Z,-82
2023-04-06T18:14:26.634Z,-84
2023-04-06T18:16:53.370Z,-83
2023-04-06T18:19:20.453Z,-83
2023-04-06T18:21:47.086Z,-82
2023-04-06T18:24:27.349Z,-83
2023-04-06T18:26:59.740Z,-83
2023-04-06T18:29:26.545Z,-82
2023-04-06T18:31:55.153Z,-81
2023-04-06T18:34:22.402Z,-82
2023-04-06T18:36:49.275Z,-81
2023-04-06T18:39:16.159Z,-80
2023-04-06T18:41:42.870Z,-84
2023-04-06T18:44:09.729Z,-82
2023-04-06T18:46:36.442Z,-83
2023-04-06T18:49:04.316Z,-83
2023-04-06T18:51:32.740Z,-82
2023-04-06T18:54:01.347Z,-82
2023-04-06T18:56:28.440Z,-82
2023-04-06T18:58:55.328Z,-83
2023-04-06T19:01:29.979Z,-81
2023-04-06T19:04:00.244Z,-83
2023-04-06T19:06:27.765Z,-81
2023-04-06T19:08:54.506Z,-82
2023-04-06T19:11:23.355Z,-82
2023-04-06T19:13:50.500Z,-82
2023-04-06T19:16:17.892Z,-82
2023-04-06T19:18:45.784Z,-81
2023-04-06T19:21:21.138Z,-81
2023-04-06T19:23:49.723Z,-84
2023-04-06T19:26:18.250Z,-84
2023-04-06T19:28:45.950Z,-82
2023-04-06T19:31:14.891Z,-82
2023-04-06T19:33:42.321Z,-81
2023-04-06T19:36:09.543Z,-83
2023-04-06T19:38:39.084Z,-82
2023-04-06T19:41:06.691Z,-83
2023-04-06T19:43:33.328Z,-83
2023-04-06T19:46:00.840Z,-81
2023-04-06T19:48:27.528Z,-82
2023-04-06T19:50:55.116Z,-83
2023-04-06T19:53:24.707Z,-84
2023-04-06T19:55:51.572Z,-82
2023-04-06T19:58:18.637Z,-85
2023-04-06T20:00:45.818Z,-82
2023-04-06T20:03:12.857Z,-82
2023-04-06T20:05:40.190Z,-82
2023-04-06T20:08:07.155Z,-83
2023-04-06T20:10:33.841Z,-83
2023-04-06T20:13:03.461Z,-82
2023-04-06T20:15:30.940Z,-82
2023-04-06T20:17:58.922Z,-81
2023-04-06T20:20:25.688Z,-83
2023-04-06T20:22:52.455Z,-83
2023-04-06T20:25:19.901Z,-80
2023-04-06T20:27:46.553Z,-80
2023-04-06T20:30:15.302Z,-85
2023-04-06T20:32:42.436Z,-84
2023-04-06T20:35:11.788Z,-83
2023-04-06T20:37:39.016Z,-83
2023-04-06T20:40:08.174Z,-82
2023-04-06T20:42:35.124Z,-85
2023-04-06T20:45:03.469Z,-87
2023-04-06T20:47:31.649Z,-84
2023-04-06T20:49:58.839Z,-84
2023-04-06T20:52:25.719Z,-85
2023-04-06T20:54:52.716Z,-84
2023-04-06T20:57:19.867Z,-85
2023-04-06T20:59:46.682Z,-83
2023-04-06T21:02:13.637Z,-85
2023-04-06T21:04:40.536Z,-83
2023-04-06T21:07:07.694Z,-83
2023-04-06T21:09:36.094Z,-83
2023-04-06T21:12:03.627Z,-83
2023-04-06T21:14:30.708Z,-83
2023-04-06T21:16:58.171Z,-81
2023-04-06T21:19:24.866Z,-83
2023-04-06T21:21:51.451Z,-82
2023-04-06T21:24:18.343Z,-82
2023-04-06T21:26:45.532Z,-85
2023-04-06T21:29:12.199Z,-82
2023-04-06T21:31:41.372Z,-83
2023-04-06T21:34:12.195Z,-83
2023-04-06T21:36:39.705Z,-83
2023-04-06T21:39:07.255Z,-84
2023-04-06T21:41:34.599Z,-83
2023-04-06T21:44:01.227Z,-85
2023-04-06T21:46:27.939Z,-85
2023-04-06T21:48:54.578Z,-83
2023-04-06T21:51:22.764Z,-84
2023-04-06T21:53:52.377Z,-84
2023-04-06T21:56:23.420Z,-82
2023-04-06T21:58:51.307Z,-83
2023-04-06T22:01:18.915Z,-85
2023-04-06T22:03:47.076Z,-83
2023-04-06T22:06:13.976Z,-83
2023-04-06T22:08:40.872Z,-81
2023-04-06T22:11:09.840Z,-81
2023-04-06T22:13:36.607Z,-83
2023-04-06T22:16:04.171Z,-85
2023-04-06T22:18:31.337Z,-85
2023-04-06T22:20:58.153Z,-84
2023-04-06T22:23:24.967Z,-83
2023-04-06T22:25:52.612Z,-80
2023-04-06T22:28:19.355Z,-82
2023-04-06T22:30:46.047Z,-82
2023-04-06T22:33:12.663Z,-83
2023-04-06T22:35:39.423Z,-81
2023-04-06T22:38:06.366Z,-83
2023-04-06T22:40:33.058Z,-83
2023-04-06T22:42:59.784Z,-83
2023-04-06T22:45:29.451Z,-84
2023-04-06T22:47:56.227Z,-81
2023-04-06T22:50:26.109Z,-85
2023-04-06T22:52:52.939Z,-84
2023-04-06T22:55:19.761Z,-82
2023-04-06T22:57:48.778Z,-81
2023-04-06T23:00:25.554Z,-83
2023-04-06T23:02:52.407Z,-84
2023-04-06T23:05:19.139Z,-83
2023-04-06T23:07:45.840Z,-79
2023-04-06T23:10:12.592Z,-83
2023-04-06T23:12:39.214Z,-82
2023-04-06T23:15:06.385Z,-85
2023-04-06T23:17:33.287Z,-85
2023-04-06T23:20:00.029Z,-84
2023-04-06T23:22:26.701Z,-82
2023-04-06T23:24:53.333Z,-85
2023-04-06T23:27:19.965Z,-82
2023-04-06T23:29:46.605Z,-83
2023-04-06T23:32:13.251Z,-85
2023-04-06T23:34:39.916Z,-86
2023-04-06T23:37:06.729Z,-82
2023-04-06T23:39:33.538Z,-82
2023-04-06T23:42:00.360Z,-85
2023-04-06T23:44:29.676Z,-84
2023-04-06T23:46:56.731Z,-82
2023-04-06T23:49:23.372Z,-81
2023-04-06T23:51:49.945Z,-86
2023-04-06T23:54:16.875Z,-83
2023-04-06T23:56:52.306Z,-83
2023-04-06T23:59:19.054Z,-84
